NWS Watch, Warning, Advisory or Statement is in effect for Boone County, KY. View Alert

Weather Station Data

Station Data Captured at Five Minute Intervals Since Midnight Local Time


Date Time Temp. RH % Dew Pt. Wind Speed Wind Dir. Peak Wind Wind Chill Pressure Precip. Solar W/m2 ET
6/18/21 4:15a 67.3 76 59.5 1.0 S 3.0 67.3 29.949 0.00 0 0.000
6/18/21 4:10a 67.4 76 59.6 2.0 S 4.0 67.4 29.956 0.00 0 0.000
6/18/21 4:05a 67.4 76 59.6 2.0 SSW 5.0 67.4 29.959 0.00 0 0.000
6/18/21 4:00a 67.2 76 59.4 2.0 SSW 5.0 67.2 29.954 0.00 0 0.001
6/18/21 3:55a 67.2 76 59.4 1.0 SSW 4.0 67.2 29.950 0.00 0 0.000
6/18/21 3:50a 67.3 76 59.5 2.0 S 6.0 67.3 29.950 0.00 0 0.000
6/18/21 3:45a 67.3 76 59.5 2.0 S 5.0 67.3 29.959 0.00 0 0.000
6/18/21 3:40a 67.2 76 59.4 1.0 S 4.0 67.2 29.959 0.00 0 0.000
6/18/21 3:35a 67.3 76 59.5 1.0 S 3.0 67.3 29.961 0.00 0 0.000
6/18/21 3:30a 67.4 75 59.2 1.0 S 3.0 67.4 29.969 0.00 0 0.000
6/18/21 3:25a 67.4 75 59.2 1.0 S 4.0 67.4 29.971 0.00 0 0.000
6/18/21 3:20a 67.4 75 59.2 1.0 S 5.0 67.4 29.973 0.00 0 0.000
6/18/21 3:15a 67.3 75 59.1 1.0 S 5.0 67.3 29.975 0.00 0 0.000
6/18/21 3:10a 67.2 75 59.0 1.0 S 3.0 67.2 29.981 0.00 0 0.000
6/18/21 3:05a 67.2 76 59.4 0.0 S 2.0 67.2 29.981 0.00 0 0.000
6/18/21 3:00a 67.6 75 59.4 0.0 S 1.0 67.6 29.986 0.00 0 0.001
6/18/21 2:55a 67.9 75 59.7 0.0 --- 0.0 67.9 29.990 0.00 0 0.000
6/18/21 2:50a 68.2 74 59.6 0.0 S 2.0 68.2 29.991 0.00 0 0.000
6/18/21 2:45a 68.4 73 59.4 0.0 S 1.0 68.4 29.994 0.00 0 0.000
6/18/21 2:40a 68.4 73 59.4 1.0 S 2.0 68.4 29.996 0.00 0 0.000
6/18/21 2:35a 68.4 73 59.4 1.0 S 3.0 68.4 29.992 0.00 0 0.000
6/18/21 2:30a 68.4 73 59.4 1.0 S 3.0 68.4 29.986 0.00 0 0.000
6/18/21 2:25a 68.5 73 59.5 1.0 S 4.0 68.5 29.986 0.00 0 0.000
6/18/21 2:20a 68.5 73 59.5 1.0 SSW 4.0 68.5 29.987 0.00 0 0.000
6/18/21 2:15a 68.6 73 59.6 2.0 SSW 4.0 68.6 29.986 0.00 0 0.000
6/18/21 2:10a 68.5 73 59.5 1.0 SSW 3.0 68.5 29.987 0.00 0 0.000
6/18/21 2:05a 68.8 73 59.8 1.0 SSW 3.0 68.8 29.985 0.00 0 0.000
6/18/21 2:00a 69.0 73 60.0 1.0 SSW 2.0 69.0 29.987 0.00 0 0.001
6/18/21 1:55a 69.2 72 59.8 0.0 SSW 2.0 69.2 29.985 0.00 0 0.000
6/18/21 1:50a 69.5 72 60.1 1.0 SSW 2.0 69.5 29.988 0.00 0 0.000
6/18/21 1:45a 69.6 71 59.8 0.0 SSW 1.0 69.6 29.988 0.00 0 0.000
6/18/21 1:40a 69.7 71 59.9 1.0 SSW 4.0 69.7 29.987 0.00 0 0.000
6/18/21 1:35a 69.6 71 59.8 1.0 SSW 3.0 69.6 29.983 0.00 0 0.000
6/18/21 1:30a 69.5 71 59.7 1.0 SSW 2.0 69.5 29.986 0.00 0 0.000
6/18/21 1:25a 69.5 72 60.1 0.0 SSW 2.0 69.5 29.983 0.00 0 0.000
6/18/21 1:20a 69.5 72 60.1 1.0 SSW 3.0 69.5 29.984 0.00 0 0.000
6/18/21 1:15a 69.5 72 60.1 0.0 SSW 2.0 69.5 29.983 0.00 0 0.000
6/18/21 1:10a 69.6 72 60.2 1.0 SSW 3.0 69.6 29.987 0.00 0 0.000
6/18/21 1:05a 69.8 72 60.4 1.0 SSW 3.0 69.8 29.991 0.00 0 0.000
6/18/21 1:00a 69.9 71 60.1 1.0 SSW 2.0 69.9 29.995 0.00 0 0.001
6/18/21 12:55a 70.1 71 60.3 1.0 SSW 2.0 70.1 29.995 0.00 0 0.000
6/18/21 12:50a 70.3 71 60.4 1.0 SSW 3.0 70.3 29.997 0.00 0 0.000
6/18/21 12:45a 70.4 70 60.1 0.0 SSW 2.0 70.4 30.000 0.00 0 0.000
6/18/21 12:40a 70.6 70 60.3 1.0 SSW 2.0 70.6 30.002 0.00 0 0.000
6/18/21 12:35a 70.8 70 60.5 1.0 SSW 3.0 70.8 30.001 0.00 0 0.000
6/18/21 12:30a 71.0 69 60.3 1.0 SSW 3.0 71.0 30.001 0.00 0 0.000
6/18/21 12:25a 71.0 69 60.3 1.0 SSW 3.0 71.0 30.003 0.00 0 0.000
6/18/21 12:20a 71.1 69 60.4 1.0 SSW 4.0 71.1 30.002 0.00 0 0.000
6/18/21 12:15a 71.2 69 60.5 2.0 SSW 4.0 71.2 30.001 0.00 0 0.000
6/18/21 12:10a 71.2 69 60.5 1.0 SSW 3.0 71.2 30.003 0.00 0 0.000
6/18/21 12:05a 71.3 69 60.6 1.0 SSW 3.0 71.3 30.004 0.00 0 0.000
6/18/21 12:00a 71.5 68 60.4 1.0 SSW 2.0 71.5 30.003 0.00 0 0.001

14,246 Page Views